Time;durP1;ratioP1;P1;durP2;ratioP2;P2;SDS_P1;SDS_P2;PMS_P1;PMS_P2;Temp;Humidity;BMP_temperature;BMP_pressure;BME280_temperature;BME280_humidity;BME280_pressure;Samples;Min_cycle;Max_cycle;Signal;HPM_P1;HPM_P2
2022/07/26 00:00:44;;;;;;;20.25;3.60;;;;;;;18.97;100.00;101203.72;2616968;36;20057;-52
2022/07/26 00:03:13;;;;;;;10.50;2.37;;;;;;;18.87;100.00;101201.25;2615899;36;20035;-49
2022/07/26 00:05:43;;;;;;;10.70;2.63;;;;;;;18.86;100.00;101203.13;2616047;36;20306;-52
2022/07/26 00:08:12;;;;;;;10.52;2.53;;;;;;;18.86;100.00;101200.41;2615970;36;20435;-49
2022/07/26 00:10:42;;;;;;;11.27;3.28;;;;;;;18.82;100.00;101212.66;2615463;31;20045;-48
2022/07/26 00:13:11;;;;;;;9.80;2.40;;;;;;;18.72;100.00;101207.44;2615351;36;20069;-53
2022/07/26 00:15:42;;;;;;;;;;;;;;;18.68;100.00;101217.03;2615371;54;20027;-49
2022/07/26 00:18:11;;;;;;;10.48;2.72;;;;;;;18.63;100.00;101216.72;2613950;36;19981;-54
2022/07/26 00:20:40;;;;;;;11.55;2.95;;;;;;;18.64;100.00;101218.44;2614254;36;20022;-54
2022/07/26 00:23:11;;;;;;;12.60;3.17;;;;;;;18.60;100.00;101224.44;2615477;36;20038;-49
2022/07/26 00:25:39;;;;;;;11.32;3.13;;;;;;;18.55;100.00;101219.47;2615006;31;20031;-48
2022/07/26 00:28:08;;;;;;;9.00;3.28;;;;;;;18.66;100.00;101224.53;2614256;36;20069;-51
2022/07/26 00:30:37;;;;;;;12.15;3.45;;;;;;;18.58;100.00;101221.88;2615047;36;20573;-50
2022/07/26 00:33:05;;;;;;;15.70;4.05;;;;;;;18.62;100.00;101223.19;2614972;31;20046;-53
2022/07/26 00:35:34;;;;;;;10.95;3.05;;;;;;;18.62;100.00;101230.53;2614617;36;20053;-49
2022/07/26 00:38:02;;;;;;;10.55;3.00;;;;;;;18.76;100.00;101231.63;2614824;36;20065;-50
2022/07/26 00:40:33;;;;;;;13.43;3.45;;;;;;;18.76;100.00;101235.22;2615216;31;20065;-49
2022/07/26 00:43:01;;;;;;;14.82;3.35;;;;;;;18.79;100.00;101239.47;2614924;36;20034;-49
2022/07/26 00:45:30;;;;;;;12.10;2.80;;;;;;;18.76;100.00;101235.22;2614818;36;20038;-48
2022/07/26 00:47:58;;;;;;;13.13;3.10;;;;;;;18.96;100.00;101234.75;2613997;36;20303;-50
2022/07/26 00:50:26;;;;;;;11.27;2.45;;;;;;;18.91;100.00;101233.41;2614957;36;20073;-53
2022/07/26 00:52:55;;;;;;;11.48;2.45;;;;;;;18.91;100.00;101238.88;2615525;36;20071;-48
2022/07/26 00:55:23;;;;;;;17.00;3.47;;;;;;;18.96;100.00;101237.47;2614974;36;20030;-49
2022/07/26 00:57:54;;;;;;;15.07;2.72;;;;;;;18.90;100.00;101241.78;2615224;36;20038;-53
2022/07/26 01:00:26;;;;;;;11.55;2.95;;;;;;;18.98;100.00;101244.47;2614976;31;20034;-49
2022/07/26 01:02:54;;;;;;;11.20;2.70;;;;;;;18.89;100.00;101240.09;2614771;36;20038;-50
2022/07/26 01:05:23;;;;;;;12.30;3.03;;;;;;;19.01;100.00;101244.09;2614839;36;20034;-48
2022/07/26 01:07:52;;;;;;;10.50;2.78;;;;;;;18.98;100.00;101249.09;2615225;36;20038;-48
2022/07/26 01:10:21;;;;;;;9.40;2.80;;;;;;;18.93;100.00;101246.03;2615174;36;20551;-52
2022/07/26 01:12:49;;;;;;;12.30;2.70;;;;;;;18.91;100.00;101249.78;2614978;36;20073;-50
2022/07/26 01:15:22;;;;;;;10.73;2.45;;;;;;;18.91;100.00;101247.06;2615484;36;20448;-51
2022/07/26 01:17:50;;;;;;;13.57;3.15;;;;;;;18.87;100.00;101248.47;2614697;36;20073;-50
2022/07/26 01:20:18;;;;;;;15.53;3.53;;;;;;;18.89;100.00;101251.00;2616050;36;20031;-50
2022/07/26 01:22:49;;;;;;;10.73;2.50;;;;;;;18.88;100.00;101239.25;2614784;36;20328;-49
2022/07/26 01:25:17;;;;;;;11.15;2.50;;;;;;;18.90;100.00;101239.94;2614699;36;20369;-49
2022/07/26 01:27:46;;;;;;;9.70;2.67;;;;;;;18.88;100.00;101241.97;2615068;36;20046;-51
2022/07/26 01:30:15;;;;;;;12.37;2.67;;;;;;;18.93;100.00;101241.41;2614037;36;20038;-54
2022/07/26 01:32:43;;;;;;;12.88;2.90;;;;;;;18.98;100.00;101240.91;2614297;36;20302;-54
2022/07/26 01:35:12;;;;;;;12.80;2.75;;;;;;;18.96;100.00;101237.47;2615136;36;20038;-50
2022/07/26 01:37:40;;;;;;;8.88;2.35;;;;;;;19.02;100.00;101240.34;2615490;36;20471;-51
2022/07/26 01:40:13;;;;;;;8.63;2.90;;;;;;;19.02;100.00;101242.19;2615192;36;20046;-52
2022/07/26 01:42:41;;;;;;;11.65;2.63;;;;;;;19.04;100.00;101234.69;2614989;36;20037;-51
2022/07/26 01:45:11;;;;;;;10.60;2.42;;;;;;;19.08;100.00;101233.31;2615745;36;20479;-49
2022/07/26 01:47:39;;;;;;;10.98;2.03;;;;;;;19.05;100.00;101231.78;2615368;36;20499;-52
2022/07/26 01:50:10;;;;;;;8.43;2.60;;;;;;;19.12;100.00;101234.63;2615023;36;20030;-49
2022/07/26 01:52:38;;;;;;;10.30;2.08;;;;;;;19.07;100.00;101232.44;2615690;36;20038;-55
2022/07/26 01:55:07;;;;;;;15.05;2.38;;;;;;;19.07;100.00;101227.00;2615890;36;20050;-50
2022/07/26 01:57:38;;;;;;;10.73;2.88;;;;;;;18.98;100.00;101230.81;2615518;36;20069;-50
2022/07/26 02:00:08;;;;;;;12.02;2.10;;;;;;;18.94;100.00;101231.38;2615651;36;20947;-50
2022/07/26 02:02:36;;;;;;;13.13;2.10;;;;;;;18.86;100.00;101233.13;2614645;36;20518;-53
2022/07/26 02:05:05;;;;;;;5.68;2.08;;;;;;;18.93;100.00;101246.03;2615757;36;20034;-53
2022/07/26 02:07:39;;;;;;;6.55;2.35;;;;;;;18.73;100.00;101241.03;2615365;36;20023;-50
2022/07/26 02:10:08;;;;;;;11.18;2.30;;;;;;;18.68;100.00;101243.44;2615375;36;20058;-50
2022/07/26 02:12:39;;;;;;;6.78;2.08;;;;;;;18.64;100.00;101242.09;2615921;31;20069;-52
2022/07/26 02:15:09;;;;;;;7.95;2.17;;;;;;;18.58;100.00;101242.81;2615749;31;20043;-49
2022/07/26 02:17:38;;;;;;;7.18;1.88;;;;;;;18.56;100.00;101241.16;2614992;36;20558;-49
2022/07/26 02:20:08;;;;;;;7.30;1.95;;;;;;;18.58;100.00;101242.81;2615444;36;20043;-53
2022/07/26 02:22:37;;;;;;;7.50;1.80;;;;;;;18.58;100.00;101231.91;2615680;36;20030;-49
2022/07/26 02:25:06;;;;;;;4.30;1.88;;;;;;;18.50;100.00;101233.66;2615689;36;20037;-53
2022/07/26 02:27:34;;;;;;;;;;;;;;;18.49;100.00;101234.72;2615165;36;20035;-47
2022/07/26 02:30:06;;;;;;;6.55;1.70;;;;;;;18.41;100.00;101231.19;2615413;36;19965;-48
2022/07/26 02:32:34;;;;;;;7.18;1.77;;;;;;;18.37;100.00;101237.00;2615007;36;20042;-49
2022/07/26 02:35:02;;;;;;;4.80;1.50;;;;;;;18.37;100.00;101244.28;2615672;36;20038;-49
2022/07/26 02:37:30;;;;;;;4.43;1.70;;;;;;;18.36;100.00;101245.34;2614894;36;20295;-51
2022/07/26 02:39:59;;;;;;;3.63;2.00;;;;;;;18.26;100.00;101255.59;2616011;36;20577;-48
2022/07/26 02:42:27;;;;;;;4.97;1.63;;;;;;;18.24;100.00;101253.06;2616121;31;20057;-48
2022/07/26 02:44:55;;;;;;;5.68;1.70;;;;;;;18.18;100.00;101259.19;2615884;36;20043;-49
2022/07/26 02:47:26;;;;;;;2.60;1.77;;;;;;;18.11;100.00;101263.66;2614547;36;20039;-53
2022/07/26 02:49:54;;;;;;;4.15;1.40;;;;;;;18.13;100.00;101258.88;2615975;32;20828;-49
2022/07/26 02:52:23;;;;;;;4.10;1.60;;;;;;;18.26;100.00;101263.78;2614999;36;20041;-52
2022/07/26 02:54:51;;;;;;;2.37;1.53;;;;;;;18.35;100.00;101266.28;2615105;36;20310;-52
2022/07/26 02:57:19;;;;;;;2.90;1.47;;;;;;;18.39;100.00;101255.88;2614623;36;20038;-51
2022/07/26 02:59:47;;;;;;;6.00;1.60;;;;;;;18.24;100.00;101260.38;2615783;36;20299;-51
2022/07/26 03:02:16;;;;;;;5.57;1.47;;;;;;;18.19;100.00;101269.06;2614968;36;20104;-50
2022/07/26 03:04:47;;;;;;;4.53;1.67;;;;;;;18.17;100.00;101263.81;2615414;36;20035;-53
2022/07/26 03:07:15;;;;;;;7.78;1.80;;;;;;;18.10;100.00;101276.44;2615732;36;20470;-51
2022/07/26 03:09:43;;;;;;;4.10;1.70;;;;;;;18.06;100.00;101275.06;2615826;36;20026;-50
2022/07/26 03:12:11;;;;;;;3.55;1.60;;;;;;;18.02;100.00;101276.44;2614887;31;20038;-52
2022/07/26 03:14:40;;;;;;;3.53;1.57;;;;;;;17.91;100.00;101285.00;2615627;36;20081;-47
2022/07/26 03:17:08;;;;;;;6.87;1.80;;;;;;;17.91;100.00;101302.19;2614736;36;20035;-51
2022/07/26 03:19:36;;;;;;;4.23;1.70;;;;;;;17.91;100.00;101295.91;2615829;36;20030;-50
2022/07/26 03:22:07;;;;;;;4.77;1.60;;;;;;;17.85;100.00;101300.97;2614783;36;20353;-50
2022/07/26 03:24:35;;;;;;;4.32;1.80;;;;;;;17.89;100.00;101303.34;2615419;36;20100;-49
2022/07/26 03:27:03;;;;;;;3.90;1.67;;;;;;;17.90;100.00;101310.53;2614881;36;20035;-52
2022/07/26 03:29:32;;;;;;;2.97;1.50;;;;;;;17.84;100.00;101310.19;2615822;36;20077;-49
2022/07/26 03:32:00;;;;;;;2.03;1.40;;;;;;;17.84;100.00;101314.75;2614431;36;20023;-51
2022/07/26 03:34:28;;;;;;;3.13;1.53;;;;;;;17.79;100.00;101309.84;2615236;31;20030;-50
2022/07/26 03:36:56;;;;;;;5.07;1.60;;;;;;;17.82;100.00;101314.94;2614417;36;20292;-50
2022/07/26 03:39:27;;;;;;;4.07;1.87;;;;;;;17.85;100.00;101316.47;2615538;36;20037;-52
2022/07/26 03:41:56;;;;;;;4.60;2.25;;;;;;;17.94;100.00;101311.88;2615131;31;20145;-50
2022/07/26 03:44:24;;;;;;;4.60;1.87;;;;;;;17.94;100.00;101317.34;2615743;36;20093;-52
2022/07/26 03:46:55;;;;;;;4.83;1.70;;;;;;;17.91;100.00;101318.53;2614699;54;20042;-50
2022/07/26 03:49:24;;;;;;;5.50;1.70;;;;;;;17.94;100.00;101322.78;2615647;36;20034;-48
2022/07/26 03:51:54;;;;;;;6.00;1.42;;;;;;;17.98;100.00;101321.41;2614427;36;20045;-49
2022/07/26 03:54:22;;;;;;;5.95;2.15;;;;;;;18.02;100.00;101323.63;2615507;31;20578;-51
2022/07/26 03:56:50;;;;;;;6.07;2.00;;;;;;;17.94;100.00;101322.78;2615113;36;20030;-51
2022/07/26 03:59:20;;;;;;;4.22;1.70;;;;;;;17.90;100.00;101321.41;2614761;36;20037;-49
2022/07/26 04:01:48;;;;;;;;;;;;;;;17.80;100.00;101321.56;2614390;36;20035;-55
2022/07/26 04:04:18;;;;;;;2.95;1.42;;;;;;;17.83;100.00;101322.09;2615139;36;19950;-50
2022/07/26 04:06:48;;;;;;;6.38;1.80;;;;;;;17.79;100.00;101326.16;2614294;36;20031;-48
2022/07/26 04:09:17;;;;;;;4.13;2.10;;;;;;;17.71;100.00;101318.03;2615566;36;20034;-49
2022/07/26 04:11:46;;;;;;;;;;;;;;;17.72;100.00;101327.88;2615019;36;20042;-53
2022/07/26 04:14:18;;;;;;;5.00;2.33;;;;;;;17.80;100.00;101325.16;2615248;36;19977;-50
2022/07/26 04:16:46;;;;;;;3.22;1.73;;;;;;;17.80;100.00;101327.00;2614262;36;20038;-48
2022/07/26 04:19:15;;;;;;;5.77;1.90;;;;;;;17.84;100.00;101331.97;2615657;36;20058;-51
2022/07/26 04:21:43;;;;;;;7.50;1.65;;;;;;;17.96;100.00;101332.47;2614941;36;20327;-52
2022/07/26 04:24:11;;;;;;;4.72;1.52;;;;;;;17.98;100.00;101340.47;2615240;36;20085;-51
2022/07/26 04:26:40;;;;;;;6.10;2.00;;;;;;;18.06;100.00;101351.34;2614608;36;20034;-52
2022/07/26 04:29:08;;;;;;;5.43;2.17;;;;;;;18.19;100.00;101343.47;2615502;36;20307;-53
2022/07/26 04:31:39;;;;;;;4.90;2.13;;;;;;;18.17;100.00;101348.25;2614429;36;20168;-53
2022/07/26 04:34:07;;;;;;;7.65;2.10;;;;;;;18.27;100.00;101347.19;2614967;36;20302;-51
2022/07/26 04:36:35;;;;;;;6.70;1.90;;;;;;;18.28;100.00;101346.19;2614443;36;20495;-51
2022/07/26 04:39:04;;;;;;;7.15;1.90;;;;;;;18.30;100.00;101349.56;2615395;36;20035;-50
2022/07/26 04:41:32;;;;;;;4.10;1.90;;;;;;;18.35;100.00;101352.63;2614565;36;20555;-49
2022/07/26 04:44:00;;;;;;;5.37;1.70;;;;;;;18.45;100.00;101353.28;2615389;36;20041;-49
2022/07/26 04:46:28;;;;;;;4.70;1.80;;;;;;;18.54;100.00;101338.59;2614124;31;20299;-50
2022/07/26 04:48:59;;;;;;;5.05;1.73;;;;;;;18.70;100.00;101347.72;2615208;36;20563;-53
2022/07/26 04:51:28;;;;;;;5.72;1.95;;;;;;;18.80;100.00;101347.50;2614892;36;20440;-52
2022/07/26 04:53:56;;;;;;;4.97;1.83;;;;;;;18.86;100.00;101353.13;2615492;36;20085;-50
2022/07/26 04:56:24;;;;;;;4.00;1.40;;;;;;;18.88;100.00;101350.22;2614296;36;20045;-52
2022/07/26 04:58:53;;;;;;;3.83;1.50;;;;;;;18.87;100.00;101356.69;2614984;36;20271;-52
2022/07/26 05:01:21;;;;;;;3.00;1.37;;;;;;;19.01;100.00;101349.66;2614409;36;20311;-49
2022/07/26 05:03:49;;;;;;;4.13;1.38;;;;;;;19.00;100.00;101356.13;2615952;36;20653;-50
2022/07/26 05:06:20;;;;;;;5.50;1.40;;;;;;;19.22;100.00;101358.00;2614740;31;20571;-54
2022/07/26 05:08:48;;;;;;;4.97;1.50;;;;;;;19.24;100.00;101364.16;2615049;31;20126;-54
2022/07/26 05:11:17;;;;;;;4.97;1.23;;;;;;;19.33;100.00;101367.69;2614878;36;20052;-52
2022/07/26 05:13:45;;;;;;;5.85;1.30;;;;;;;19.27;100.00;101365.66;2615051;36;20045;-53
2022/07/26 05:16:13;;;;;;;2.08;1.25;;;;;;;19.48;100.00;101366.88;2614861;31;20504;-55
2022/07/26 05:18:41;;;;;;;4.68;1.27;;;;;;;19.61;100.00;101378.88;2614987;36;20038;-49
2022/07/26 05:21:10;;;;;;;2.03;1.20;;;;;;;19.49;100.00;101380.34;2615576;36;20138;-49
2022/07/26 05:23:41;;;;;;;4.65;1.20;;;;;;;19.53;100.00;101381.66;2615736;36;20073;-51
2022/07/26 05:26:09;;;;;;;3.10;1.20;;;;;;;19.49;100.00;101380.34;2615423;31;20035;-52
2022/07/26 05:28:39;;;;;;;4.05;1.25;;;;;;;19.58;100.00;101376.53;2615429;36;20042;-49
2022/07/26 05:31:08;;;;;;;3.85;1.48;;;;;;;19.55;100.00;101382.34;2615533;36;20071;-50
2022/07/26 05:33:36;;;;;;;2.60;1.15;;;;;;;19.53;100.00;101378.09;2615483;36;20030;-53
2022/07/26 05:36:05;;;;;;;2.53;1.25;;;;;;;19.53;100.00;101384.41;2615225;36;20472;-50
2022/07/26 05:38:33;;;;;;;3.28;1.20;;;;;;;19.52;100.00;101388.19;2615734;31;20035;-53
2022/07/26 05:41:04;;;;;;;5.82;1.17;;;;;;;19.41;100.00;101385.88;2616235;31;20539;-55
2022/07/26 05:43:32;;;;;;;2.78;1.10;;;;;;;19.28;100.00;101383.72;2615674;36;20042;-50
2022/07/26 05:46:01;;;;;;;4.28;1.05;;;;;;;19.31;100.00;101396.19;2615534;36;20034;-50
2022/07/26 05:48:29;;;;;;;2.97;1.15;;;;;;;19.42;100.00;101396.59;2615398;36;20081;-50
2022/07/26 05:50:58;;;;;;;3.53;1.00;;;;;;;19.41;100.00;101402.25;2615155;36;20578;-52
2022/07/26 05:53:27;;;;;;;3.10;1.10;;;;;;;19.43;100.00;101405.63;2615790;36;20299;-49
2022/07/26 05:55:55;;;;;;;3.15;0.80;;;;;;;19.42;100.00;101407.53;2616315;36;20438;-51
2022/07/26 05:58:26;;;;;;;3.13;1.35;;;;;;;19.51;100.00;101413.78;2615066;36;20565;-52
2022/07/26 06:00:54;;;;;;;3.20;0.90;;;;;;;19.41;100.00;101413.16;2615638;36;20041;-48
2022/07/26 06:03:25;;;;;;;2.58;1.00;;;;;;;19.33;100.00;101407.75;2614690;36;20023;-51
2022/07/26 06:05:55;;;;;;;3.58;0.80;;;;;;;19.17;100.00;101420.47;2615498;36;20049;-51
2022/07/26 06:08:24;;;;;;;4.95;1.02;;;;;;;19.15;100.00;101430.69;2615619;36;20053;-51
2022/07/26 06:10:53;;;;;;;3.00;1.00;;;;;;;18.80;100.00;101432.91;2615637;36;20030;-50
2022/07/26 06:13:21;;;;;;;7.88;1.23;;;;;;;18.84;100.00;101431.50;2615294;36;20030;-50
2022/07/26 06:15:52;;;;;;;6.53;1.20;;;;;;;18.88;100.00;101442.97;2615633;36;20035;-50
2022/07/26 06:18:21;;;;;;;2.33;0.82;;;;;;;18.85;100.00;101446.00;2614860;36;20030;-53
2022/07/26 06:20:50;;;;;;;3.13;0.90;;;;;;;18.61;100.00;101449.66;2616083;31;20038;-48
2022/07/26 06:23:18;;;;;;;;;;;;;;;18.58;100.00;101455.44;2616044;31;20034;-51
2022/07/26 06:25:46;;;;;;;4.30;0.93;;;;;;;18.56;100.00;101458.34;2615872;36;20495;-49
2022/07/26 06:28:15;;;;;;;2.65;0.70;;;;;;;18.54;100.00;101458.53;2614919;36;20034;-51
2022/07/26 06:30:46;;;;;;;3.70;0.90;;;;;;;18.63;100.00;101463.97;2615310;36;20030;-52
2022/07/26 06:33:17;;;;;;;5.53;1.25;;;;;;;18.69;100.00;101468.72;2614081;36;20360;-52
2022/07/26 06:35:45;;;;;;;3.97;1.10;;;;;;;18.86;100.00;101472.25;2615160;36;20027;-50
2022/07/26 06:38:13;;;;;;;7.77;1.30;;;;;;;18.87;100.00;101472.13;2614945;36;20035;-52
2022/07/26 06:40:42;;;;;;;1.07;0.87;;;;;;;18.87;100.00;101483.03;2615667;36;20338;-53
2022/07/26 06:43:13;;;;;;;3.50;1.10;;;;;;;18.66;100.00;101485.44;2616799;36;20282;-52
2022/07/26 06:45:45;;;;;;;3.60;1.10;;;;;;;18.77;100.00;101487.81;2615818;54;20038;-48
2022/07/26 06:48:14;;;;;;;2.67;1.00;;;;;;;18.83;100.00;101491.69;2614804;36;20030;-55
2022/07/26 06:50:45;;;;;;;4.93;1.20;;;;;;;18.53;100.00;101494.97;2615309;36;20038;-53
2022/07/26 06:53:13;;;;;;;2.75;1.02;;;;;;;18.40;100.00;101505.56;2615323;36;20066;-49
2022/07/26 06:55:42;;;;;;;4.07;2.55;;;;;;;18.36;100.00;101506.97;2615754;31;20413;-46
2022/07/26 06:58:10;;;;;;;4.57;1.30;;;;;;;18.14;100.00;101505.78;2614764;36;20594;-45
2022/07/26 07:00:39;;;;;;;4.05;0.95;;;;;;;18.16;100.00;101515.47;2615102;36;20035;-47
2022/07/26 07:03:07;;;;;;;2.15;0.70;;;;;;;18.40;100.00;101524.66;2614906;31;20046;-47
2022/07/26 07:05:35;;;;;;;3.27;0.83;;;;;;;18.40;100.00;101524.66;2615379;36;20035;-47
2022/07/26 07:08:08;;;;;;;1.40;0.80;;;;;;;18.32;100.00;101525.50;2615675;36;20102;-46
2022/07/26 07:10:36;;;;;;;4.30;1.02;;;;;;;18.50;100.00;101533.50;2615070;36;20042;-49
2022/07/26 07:13:04;;;;;;;4.50;1.10;;;;;;;18.44;100.00;101536.91;2615462;36;20038;-47
2022/07/26 07:15:32;;;;;;;6.63;0.90;;;;;;;18.26;100.00;101531.66;2615323;36;20334;-46
2022/07/26 07:18:01;;;;;;;3.07;0.87;;;;;;;18.23;100.00;101545.63;2614888;36;20035;-48
2022/07/26 07:20:29;;;;;;;2.40;1.17;;;;;;;18.16;100.00;101539.97;2615204;31;20046;-47
2022/07/26 07:22:58;;;;;;;4.78;0.75;;;;;;;17.96;100.00;101549.50;2614776;36;20054;-47
2022/07/26 07:25:28;;;;;;;1.27;0.70;;;;;;;18.15;100.00;101541.03;2614934;36;20053;-48
2022/07/26 07:27:57;;;;;;;2.75;0.75;;;;;;;18.25;100.00;101545.44;2615627;36;20308;-50
2022/07/26 07:30:25;;;;;;;3.67;1.07;;;;;;;17.98;100.00;101551.03;2615275;36;20054;-52
2022/07/26 07:32:54;;;;;;;3.30;0.70;;;;;;;18.26;100.00;101548.00;2614918;36;20061;-46
2022/07/26 07:35:22;;;;;;;1.80;0.60;;;;;;;18.20;100.00;101554.13;2614718;36;20039;-46
2022/07/26 07:37:51;;;;;;;3.13;0.70;;;;;;;18.38;100.00;101562.97;2615393;31;20055;-48
2022/07/26 07:40:19;;;;;;;2.83;0.60;;;;;;;18.78;100.00;101573.19;2615302;36;20038;-49
2022/07/26 07:42:50;;;;;;;0.75;0.50;;;;;;;19.11;100.00;101575.84;2614913;36;20034;-51
2022/07/26 07:45:18;;;;;;;2.60;0.70;;;;;;;18.79;100.00;101572.16;2614844;36;20080;-48
2022/07/26 07:47:46;;;;;;;1.97;0.80;;;;;;;18.54;100.00;101569.47;2614985;36;20034;-46
2022/07/26 07:50:15;;;;;;;1.47;0.50;;;;;;;18.79;100.00;101570.28;2615282;36;20338;-51
2022/07/26 07:52:43;;;;;;;0.85;0.50;;;;;;;18.80;100.00;101568.41;2615252;36;20030;-50
2022/07/26 07:55:12;;;;;;;0.52;0.50;;;;;;;18.77;100.00;101575.06;2615136;36;20126;-52
2022/07/26 07:57:40;;;;;;;3.30;0.73;;;;;;;18.86;100.00;101568.59;2615434;36;20440;-50
2022/07/26 08:00:14;;;;;;;2.80;0.50;;;;;;;18.79;100.00;101570.28;2615090;36;20041;-47
2022/07/26 08:02:42;;;;;;;1.90;0.57;;;;;;;18.98;100.00;101570.97;2614847;36;20043;-50
2022/07/26 08:05:11;;;;;;;2.65;0.68;;;;;;;19.10;100.00;101566.84;2614289;31;20049;-47
2022/07/26 08:07:39;;;;;;;1.58;0.63;;;;;;;19.24;100.00;101579.75;2616220;31;20038;-47
2022/07/26 08:10:08;;;;;;;2.13;0.55;;;;;;;19.74;100.00;101577.66;2615024;36;20026;-46
2022/07/26 08:12:37;;;;;;;2.78;0.60;;;;;;;19.80;100.00;101575.25;2615181;36;20503;-48
2022/07/26 08:15:07;;;;;;;3.13;0.57;;;;;;;20.06;100.00;101573.03;2614937;36;20030;-49
2022/07/26 08:17:38;;;;;;;2.67;0.68;;;;;;;19.80;100.00;101575.25;2615499;36;20439;-49
2022/07/26 08:20:08;;;;;;;3.72;0.50;;;;;;;19.87;100.00;101568.88;2615033;36;20590;-48
2022/07/26 08:22:36;;;;;;;3.22;0.63;;;;;;;19.31;100.00;101568.97;2615129;36;20479;-49
2022/07/26 08:25:04;;;;;;;3.22;0.65;;;;;;;19.48;100.00;101575.22;2615151;36;20038;-49
2022/07/26 08:27:33;;;;;;;1.33;0.57;;;;;;;19.76;100.00;101569.28;2615090;36;20101;-51
2022/07/26 08:30:01;;;;;;;2.50;0.60;;;;;;;20.09;100.00;101574.56;2615202;36;20556;-52
2022/07/26 08:32:29;;;;;;;1.77;0.50;;;;;;;20.45;100.00;101568.44;2614180;36;20030;-51
2022/07/26 08:35:00;;;;;;;3.58;0.70;;;;;;;21.00;100.00;101578.22;2614588;36;20030;-48
2022/07/26 08:37:28;;;;;;;1.50;0.60;;;;;;;21.13;100.00;101565.78;2614274;36;20041;-49
2022/07/26 08:39:57;;;;;;;1.13;0.50;;;;;;;21.28;100.00;101577.56;2615503;36;20038;-49
2022/07/26 08:42:25;;;;;;;0.95;0.50;;;;;;;20.79;100.00;101586.31;2614839;36;20054;-50
2022/07/26 08:44:54;;;;;;;3.28;0.55;;;;;;;20.12;100.00;101601.53;2615034;36;20030;-48
2022/07/26 08:47:23;;;;;;;2.65;0.50;;;;;;;19.46;100.00;101612.75;2614574;36;20042;-52
2022/07/26 08:49:52;;;;;;;2.35;0.60;;;;;;;18.83;100.00;101615.28;2615198;36;20023;-47
2022/07/26 08:52:22;;;;;;;2.28;0.85;;;;;;;18.69;100.00;101622.25;2614867;31;20041;-50
2022/07/26 08:54:53;;;;;;;1.73;0.60;;;;;;;18.76;100.00;101627.03;2615080;36;20034;-49
2022/07/26 08:57:22;;;;;;;1.65;0.80;;;;;;;18.71;100.00;101633.88;2614738;36;20061;-49
2022/07/26 09:00:18;;;;;;;3.63;0.73;;;;;;;18.52;100.00;101637.78;2615355;36;20410;-48
2022/07/26 09:02:48;;;;;;;2.17;0.50;;;;;;;19.02;100.00;101640.50;2614904;36;20291;-48
2022/07/26 09:05:16;;;;;;;6.00;1.08;;;;;;;18.96;100.00;101630.28;2614663;36;20038;-50
2022/07/26 09:07:48;;;;;;;2.50;0.80;;;;;;;19.69;100.00;101636.56;2614731;36;20039;-53
2022/07/26 09:10:17;;;;;;;1.95;0.43;;;;;;;19.50;100.00;101629.66;2615478;36;20037;-53
2022/07/26 09:12:46;;;;;;;3.70;0.80;;;;;;;19.87;100.00;101634.44;2615574;31;20045;-50
2022/07/26 09:15:21;;;;;;;;;;;;;;;19.91;100.00;101638.53;2613402;36;20073;-52
2022/07/26 09:17:52;;;;;;;1.40;0.70;;;;;;;19.93;100.00;101647.41;2614272;36;19954;-49
2022/07/26 09:20:22;;;;;;;6.95;0.70;;;;;;;19.37;100.00;101646.56;2614970;36;20031;-48
2022/07/26 09:23:01;;;;;;;2.17;1.02;;;;;;;19.64;100.00;101652.63;2615025;36;20503;-48
2022/07/26 09:25:32;;;;;;;5.07;0.75;;;;;;;19.98;100.00;101643.28;2615025;36;20038;-51
2022/07/26 09:28:01;;;;;;;2.08;0.60;;;;;;;20.31;100.00;101633.84;2614771;36;20042;-49
2022/07/26 09:30:32;;;;;;;3.72;0.70;;;;;;;20.27;100.00;101643.47;2615938;31;20989;-49
2022/07/26 09:33:04;;;;;;;2.40;0.70;;;;;;;20.67;100.00;101646.09;2615068;36;20031;-49
2022/07/26 09:35:38;;;;;;;4.47;0.90;;;;;;;21.26;100.00;101642.63;2615170;54;20030;-48
2022/07/26 09:38:17;;;;;;;3.38;0.85;;;;;;;21.62;100.00;101650.09;2614874;36;20046;-49
2022/07/26 09:40:45;;;;;;;2.38;0.68;;;;;;;21.84;100.00;101639.22;2615576;36;20440;-51
2022/07/26 09:43:15;;;;;;;1.63;0.60;;;;;;;21.46;100.00;101647.53;2614721;36;20579;-51
2022/07/26 09:45:43;;;;;;;1.98;0.70;;;;;;;21.42;100.00;101646.19;2614556;36;20166;-48
2022/07/26 09:48:13;;;;;;;0.85;0.55;;;;;;;21.50;100.00;101648.84;2614010;36;20638;-50
2022/07/26 09:50:48;;;;;;;2.78;0.80;;;;;;;21.26;100.00;101650.84;2614862;36;20035;-48
2022/07/26 09:53:21;;;;;;;2.75;0.70;;;;;;;21.35;100.00;101657.91;2613904;36;20543;-52
2022/07/26 09:55:57;;;;;;;4.43;0.75;;;;;;;21.59;100.00;101652.38;2615359;36;20104;-51
2022/07/26 09:58:26;;;;;;;4.32;0.80;;;;;;;21.66;100.00;101654.16;2615072;31;20475;-49
2022/07/26 10:00:54;;;;;;;2.80;0.60;;;;;;;21.80;100.00;101659.81;2614684;36;20039;-47
2022/07/26 10:03:23;;;;;;;1.92;0.70;;;;;;;21.10;100.00;101659.22;2614516;31;20037;-49
2022/07/26 10:05:51;;;;;;;3.17;0.65;;;;;;;21.35;100.00;101668.88;2614515;36;20069;-49
2022/07/26 10:08:22;;;;;;;4.10;0.60;;;;;;;21.47;100.00;101666.50;2616436;31;20061;-50
2022/07/26 10:10:55;;;;;;;4.20;0.80;;;;;;;21.08;100.00;101672.22;2615484;36;20030;-53
2022/07/26 10:13:24;;;;;;;2.63;0.63;;;;;;;21.28;100.00;101678.03;2615612;36;20443;-52
2022/07/26 10:15:53;;;;;;;;;;;;;;;20.56;100.00;101695.72;2616293;36;20435;-52
2022/07/26 10:18:48;;;;;;;6.53;1.05;;;;;;;20.00;100.00;101706.81;2615049;36;19950;-50
2022/07/26 10:21:20;;;;;;;2.80;1.02;;;;;;;19.37;100.00;101723.00;2615395;31;20034;-51
2022/07/26 10:23:51;;;;;;;4.07;0.98;;;;;;;18.81;100.00;101712.75;2615701;36;20030;-50
2022/07/26 10:26:39;;;;;;;3.15;1.05;;;;;;;18.93;100.00;101717.94;2615252;36;20030;-47
2022/07/26 10:29:25;;;;;;;2.70;0.75;;;;;;;19.43;100.00;101720.44;2615094;36;20041;-48
2022/07/26 10:32:26;;;;;;;3.65;0.90;;;;;;;19.21;100.00;101722.03;2614896;31;20129;-48
2022/07/26 10:34:54;;;;;;;5.10;1.10;;;;;;;19.63;100.00;101725.50;2614598;36;20031;-53
2022/07/26 10:37:26;;;;;;;3.20;0.83;;;;;;;20.00;100.00;101731.41;2614866;36;20050;-49
2022/07/26 10:40:19;;;;;;;4.53;0.85;;;;;;;20.18;100.00;101721.06;2615693;36;20347;-50
2022/07/26 10:42:47;;;;;;;2.78;0.77;;;;;;;20.34;100.00;101725.59;2615828;31;20045;-48
2022/07/26 10:45:21;;;;;;;3.13;0.98;;;;;;;20.28;100.00;101726.31;2615475;36;20562;-51
2022/07/26 10:48:12;;;;;;;5.40;1.23;;;;;;;20.42;100.00;101728.28;2615176;36;20543;-48
2022/07/26 10:50:41;;;;;;;1.42;0.70;;;;;;;20.21;100.00;101731.63;2615452;36;20129;-49
2022/07/26 10:53:12;;;;;;;3.00;0.93;;;;;;;20.40;100.00;101734.94;2615343;36;20153;-50
2022/07/26 10:55:50;;;;;;;3.65;0.80;;;;;;;20.11;100.00;101733.72;2614779;36;20054;-50
2022/07/26 10:58:19;;;;;;;6.40;1.35;;;;;;;20.61;100.00;101732.44;2615319;36;20031;-54
2022/07/26 11:00:59;;;;;;;2.72;1.08;;;;;;;20.70;100.00;101736.00;2615470;36;20039;-51
2022/07/26 11:03:36;;;;;;;6.82;1.42;;;;;;;21.37;100.00;101719.88;2614914;36;20057;-52
2022/07/26 11:06:11;;;;;;;2.72;0.90;;;;;;;21.21;100.00;101720.88;2614719;36;20507;-48
2022/07/26 11:08:40;;;;;;;4.90;1.10;;;;;;;21.52;100.00;101727.09;2615195;36;20034;-49
2022/07/26 11:11:10;;;;;;;3.70;0.80;;;;;;;21.73;100.00;101722.75;2615158;36;20034;-51
2022/07/26 11:13:39;;;;;;;4.85;0.80;;;;;;;21.84;100.00;101722.25;2615394;36;20062;-52
2022/07/26 11:16:09;;;;;;;1.92;0.70;;;;;;;21.85;100.00;101732.19;2614851;31;20594;-54
2022/07/26 11:18:39;;;;;;;2.47;0.80;;;;;;;21.74;100.00;101726.34;2612304;36;20031;-55
2022/07/26 11:21:12;;;;;;;3.70;0.88;;;;;;;21.86;100.00;101728.41;2613971;36;20038;-51
2022/07/26 11:23:43;;;;;;;3.53;0.98;;;;;;;22.22;100.00;101740.47;2614903;36;20595;-49
2022/07/26 11:26:18;;;;;;;4.20;1.00;;;;;;;22.24;100.00;101743.88;2614685;36;20030;-51
2022/07/26 11:28:58;;;;;;;2.38;0.73;;;;;;;22.26;100.00;101752.75;2614343;36;20039;-51